Time;durP1;ratioP1;P1;durP2;ratioP2;P2;SDS_P1;SDS_P2;PMS_P1;PMS_P2;Temp;Humidity;BMP_temperature;BMP_pressure;BME280_temperature;BME280_humidity;BME280_pressure;Samples;Min_cycle;Max_cycle;Signal;HPM_P1;HPM_P2
2022/04/15 00:02:24;;;;;;;4.80;2.80;;;;;;;19.18;40.30;96964.03;5116685;28;20446;-29
2022/04/15 00:04:49;;;;;;;5.65;2.55;;;;;;;19.09;40.48;96961.38;5117222;28;20027;-29
2022/04/15 00:07:15;;;;;;;4.57;2.70;;;;;;;19.10;40.41;96960.16;5117086;28;20035;-28
2022/04/15 00:09:41;;;;;;;4.78;2.40;;;;;;;19.06;40.23;96954.81;5117040;28;20026;-28
2022/04/15 00:12:10;;;;;;;3.95;2.72;;;;;;;19.09;40.37;96958.63;5116998;28;20015;-28
2022/04/15 00:14:36;;;;;;;4.82;2.72;;;;;;;19.12;40.42;96957.69;5116789;28;20115;-28
2022/04/15 00:17:02;;;;;;;5.07;2.67;;;;;;;19.12;40.04;96954.94;5116859;28;20475;-29
2022/04/15 00:19:28;;;;;;;3.58;2.53;;;;;;;19.09;40.49;96950.38;5117096;28;20032;-28
2022/04/15 00:21:54;;;;;;;5.30;2.60;;;;;;;19.04;40.44;96951.03;5098851;28;20031;-30
2022/04/15 00:24:19;;;;;;;3.45;2.47;;;;;;;19.11;40.36;96951.44;5116979;28;20460;-29
2022/04/15 00:26:45;;;;;;;4.47;2.47;;;;;;;19.06;40.29;96954.81;5116788;28;20357;-29
2022/04/15 00:29:10;;;;;;;3.53;2.55;;;;;;;19.09;40.39;96951.13;5116769;28;20016;-28
2022/04/15 00:31:36;;;;;;;4.38;2.88;;;;;;;19.17;40.19;96948.78;5116695;28;20538;-28
2022/04/15 00:34:02;;;;;;;4.07;2.53;;;;;;;19.11;40.31;96954.19;5116738;28;20027;-28
2022/04/15 00:36:29;;;;;;;4.45;2.80;;;;;;;19.15;40.26;96956.75;5116574;28;20405;-28
2022/04/15 00:38:54;;;;;;;5.53;3.20;;;;;;;19.08;40.28;96957.09;5116329;28;20015;-28
2022/04/15 00:41:20;;;;;;;3.42;2.70;;;;;;;19.11;40.12;96953.41;5116356;28;20023;-28
2022/04/15 00:43:45;;;;;;;3.28;2.33;;;;;;;19.13;39.97;96948.22;5116258;28;20027;-28
2022/04/15 00:46:11;;;;;;;4.55;2.28;;;;;;;19.07;40.35;96945.34;5116722;28;20494;-28
2022/04/15 00:48:37;;;;;;;4.38;2.50;;;;;;;19.09;40.07;96951.13;5116442;28;20044;-28
2022/04/15 00:51:04;;;;;;;6.88;2.33;;;;;;;19.09;40.02;96942.13;5116148;28;20436;-29
2022/04/15 00:53:30;;;;;;;3.08;2.55;;;;;;;19.09;39.99;96942.13;5116168;28;20024;-28
2022/04/15 00:56:03;;;;;;;5.72;2.50;;;;;;;19.02;40.16;96941.28;5115891;28;20034;-28
2022/04/15 00:58:31;;;;;;;4.15;2.35;;;;;;;19.02;40.29;96948.75;5115779;28;20027;-29
2022/04/15 01:00:57;;;;;;;7.82;4.25;;;;;;;19.05;40.28;96938.78;5115872;28;20040;-28
2022/04/15 01:03:24;;;;;;;4.70;2.20;;;;;;;18.93;40.42;96937.81;5115965;28;20456;-29
2022/04/15 01:05:59;;;;;;;4.55;2.50;;;;;;;19.02;40.05;96935.78;5115875;28;20039;-29
2022/04/15 01:08:28;;;;;;;3.30;2.40;;;;;;;19.02;40.17;96941.28;5115965;28;20023;-29
2022/04/15 01:10:58;;;;;;;3.63;2.50;;;;;;;19.06;40.12;96948.56;5115784;28;20047;-28
2022/04/15 01:13:26;;;;;;;3.88;2.60;;;;;;;19.03;40.04;96942.03;5097455;28;20054;-30
2022/04/15 01:15:54;;;;;;;3.58;2.40;;;;;;;19.01;40.03;96942.50;5115715;28;20035;-29
2022/04/15 01:18:20;;;;;;;3.50;2.60;;;;;;;19.08;39.67;96940.59;5115566;28;20019;-28
2022/04/15 01:20:53;;;;;;;3.15;2.35;;;;;;;19.02;39.93;96937.78;5115565;28;20030;-28
2022/04/15 01:23:19;;;;;;;;;;;;;;;19.07;39.70;96936.34;5115875;28;20088;-29
2022/04/15 01:25:44;;;;;;;4.45;2.22;;;;;;;19.02;39.80;96932.28;5115495;28;20351;-30
2022/04/15 01:28:10;;;;;;;3.17;2.22;;;;;;;19.02;39.70;96930.28;5115479;28;20034;-28
2022/04/15 01:30:36;;;;;;;3.17;2.10;;;;;;;18.96;39.87;96934.91;5096989;28;20031;-28
2022/04/15 01:33:03;;;;;;;3.20;2.40;;;;;;;18.94;39.73;96931.84;5115462;28;20057;-28
2022/04/15 01:35:28;;;;;;;4.25;2.30;;;;;;;18.88;39.97;96928.25;5115453;28;20023;-29
2022/04/15 01:37:57;;;;;;;3.35;2.58;;;;;;;18.94;39.65;96926.34;5115137;28;20056;-29
2022/04/15 01:40:22;;;;;;;4.10;2.58;;;;;;;19.00;39.60;96929.22;5115193;28;20026;-28
2022/04/15 01:42:49;;;;;;;4.03;2.40;;;;;;;18.95;39.63;96925.13;5115152;28;20024;-28
2022/04/15 01:45:15;;;;;;;3.03;2.10;;;;;;;18.92;39.32;96923.31;5096827;28;20074;-29
2022/04/15 01:47:41;;;;;;;4.03;1.98;;;;;;;18.99;39.41;96922.97;5115055;28;20092;-28
2022/04/15 01:50:08;;;;;;;2.70;1.90;;;;;;;18.91;39.68;96921.06;5114992;28;20027;-28
2022/04/15 01:52:34;;;;;;;3.33;2.28;;;;;;;18.98;39.19;96932.44;5115055;28;20130;-29
2022/04/15 01:55:00;;;;;;;4.07;2.00;;;;;;;19.00;39.26;96918.22;5114815;28;20106;-29
2022/04/15 01:57:26;;;;;;;2.83;1.90;;;;;;;18.89;39.32;96924.28;5114909;28;20028;-29
2022/04/15 01:59:52;;;;;;;4.20;2.38;;;;;;;18.96;38.94;96923.91;5114896;28;20038;-29
2022/04/15 02:02:17;;;;;;;2.10;1.63;;;;;;;18.97;38.94;96919.94;5114306;28;20176;-28
2022/04/15 02:04:43;;;;;;;5.35;2.13;;;;;;;18.94;39.06;96936.59;5114701;28;20076;-28
2022/04/15 02:07:08;;;;;;;3.03;1.80;;;;;;;18.86;39.41;96919.72;5114241;28;20479;-29
2022/04/15 02:09:34;;;;;;;3.47;1.92;;;;;;;18.92;38.77;96928.81;5114837;28;20032;-29
2022/04/15 02:12:00;;;;;;;4.13;1.77;;;;;;;18.95;38.73;96925.13;5114590;28;20020;-30
2022/04/15 02:14:25;;;;;;;2.55;1.67;;;;;;;18.96;38.65;96921.16;5096260;28;20027;-28
2022/04/15 02:16:53;;;;;;;2.22;1.67;;;;;;;18.98;38.84;96921.44;5114642;28;20027;-28
2022/04/15 02:19:22;;;;;;;2.95;1.90;;;;;;;18.92;38.18;96919.81;5114640;28;20084;-29
2022/04/15 02:21:48;;;;;;;1.60;1.48;;;;;;;18.96;38.56;96918.41;5095929;28;20034;-28
2022/04/15 02:24:14;;;;;;;2.00;1.70;;;;;;;18.96;38.78;96915.66;5114496;28;20027;-28
2022/04/15 02:26:41;;;;;;;1.85;1.65;;;;;;;18.98;38.43;96915.94;5095866;28;20035;-28
2022/04/15 02:29:07;;;;;;;2.40;1.63;;;;;;;18.93;38.07;96908.34;5114494;28;20027;-28
2022/04/15 02:31:33;;;;;;;2.42;1.42;;;;;;;19.03;38.35;96914.56;5114423;28;20352;-28
2022/04/15 02:33:58;;;;;;;3.50;1.77;;;;;;;18.99;38.28;96913.97;5114402;28;20019;-28
2022/04/15 02:36:24;;;;;;;2.63;1.80;;;;;;;18.93;37.99;96913.84;5114196;28;20471;-28
2022/04/15 02:38:49;;;;;;;2.28;1.50;;;;;;;18.87;38.47;96910.22;5114259;28;20107;-28
2022/04/15 02:41:15;;;;;;;2.50;1.60;;;;;;;18.85;38.25;96912.69;5114217;28;20028;-30
2022/04/15 02:43:41;;;;;;;2.40;1.45;;;;;;;18.88;38.26;96916.50;5113973;28;20020;-29
2022/04/15 02:46:08;;;;;;;2.47;1.60;;;;;;;18.88;38.62;96917.25;5114280;28;20023;-30
2022/04/15 02:48:34;;;;;;;1.90;1.40;;;;;;;18.79;38.30;96917.31;5095874;28;20027;-28
2022/04/15 02:51:03;;;;;;;2.15;1.50;;;;;;;18.76;38.32;96917.50;5114055;28;20391;-28
2022/04/15 02:53:29;;;;;;;3.30;1.50;;;;;;;18.81;38.29;96923.09;5113791;28;20034;-29
2022/04/15 02:55:55;;;;;;;2.75;1.50;;;;;;;18.89;38.20;96924.28;5114019;28;20045;-28
2022/04/15 02:58:21;;;;;;;2.15;1.65;;;;;;;18.91;38.25;96921.81;5113987;28;20027;-29
2022/04/15 03:00:47;;;;;;;2.20;1.45;;;;;;;18.85;38.27;96926.44;5095444;28;20062;-29
2022/04/15 03:03:13;;;;;;;2.03;1.27;;;;;;;18.86;38.42;96924.44;5113994;28;20028;-28
2022/04/15 03:05:39;;;;;;;3.70;1.50;;;;;;;18.80;38.28;96929.06;5113853;28;20475;-29
2022/04/15 03:08:05;;;;;;;2.22;1.50;;;;;;;18.90;38.06;96925.03;5113727;28;20035;-29
2022/04/15 03:10:31;;;;;;;2.65;1.70;;;;;;;18.83;38.20;96931.63;5113688;28;20028;-28
2022/04/15 03:12:56;;;;;;;2.30;1.58;;;;;;;18.83;38.35;96937.13;5113861;28;20028;-29
2022/04/15 03:15:22;;;;;;;2.38;1.33;;;;;;;18.83;38.27;96931.63;5113892;28;20076;-28
2022/04/15 03:17:47;;;;;;;2.28;1.40;;;;;;;18.80;38.34;96935.31;5115167;28;20034;-28
2022/04/15 03:20:13;;;;;;;2.67;1.83;;;;;;;18.75;38.33;96929.72;5117805;28;20019;-28
2022/04/15 03:22:42;;;;;;;3.97;2.05;;;;;;;18.72;38.52;96934.16;5117929;28;20442;-28
2022/04/15 03:25:09;;;;;;;2.90;2.30;;;;;;;18.69;38.51;96931.56;5118018;28;20024;-29
2022/04/15 03:27:35;;;;;;;2.88;1.48;;;;;;;18.64;38.57;96936.50;5118086;28;20376;-28
2022/04/15 03:30:01;;;;;;;3.50;1.90;;;;;;;18.64;38.90;96946.72;5117679;28;20030;-28
2022/04/15 03:32:27;;;;;;;3.92;2.00;;;;;;;18.63;39.18;96950.69;5117868;28;20026;-28
2022/04/15 03:34:53;;;;;;;4.03;1.92;;;;;;;18.64;39.48;96950.22;5117810;28;20023;-28
2022/04/15 03:37:19;;;;;;;5.10;2.00;;;;;;;18.69;39.31;96948.06;5117702;28;20027;-28
2022/04/15 03:39:44;;;;;;;3.75;2.10;;;;;;;18.65;39.48;96953.75;5117673;28;20372;-29
2022/04/15 03:42:10;;;;;;;3.78;2.10;;;;;;;18.58;39.37;96954.06;5117221;28;20365;-29
2022/04/15 03:44:36;;;;;;;4.38;2.20;;;;;;;18.65;39.16;96954.50;5117796;28;20065;-28
2022/04/15 03:47:06;;;;;;;4.07;1.98;;;;;;;18.62;39.11;96958.19;5117422;28;20024;-28
2022/04/15 03:49:32;;;;;;;2.92;1.77;;;;;;;18.59;39.44;96961.09;5117609;28;20059;-29
2022/04/15 03:51:58;;;;;;;3.20;1.88;;;;;;;18.64;39.02;96957.72;5117392;28;20019;-28
2022/04/15 03:54:23;;;;;;;4.05;2.38;;;;;;;18.63;39.36;96953.44;5117352;28;20036;-28
2022/04/15 03:56:49;;;;;;;5.05;2.42;;;;;;;18.58;39.39;96963.06;5117352;28;20072;-29
2022/04/15 03:59:14;;;;;;;3.80;2.28;;;;;;;18.63;39.25;96958.94;5117489;28;20032;-30
2022/04/15 04:01:40;;;;;;;4.93;2.22;;;;;;;18.63;39.55;96954.22;5116940;28;20169;-28
2022/04/15 04:04:06;;;;;;;3.25;2.03;;;;;;;18.60;39.64;96957.13;5117047;28;20034;-28
2022/04/15 04:06:32;;;;;;;4.85;2.40;;;;;;;18.64;39.43;96960.47;5117013;28;20027;-28
2022/04/15 04:08:57;;;;;;;5.13;2.35;;;;;;;18.52;39.65;96959.44;5117227;28;20023;-28
2022/04/15 04:11:23;;;;;;;4.20;2.13;;;;;;;18.54;39.57;96962.47;5117076;28;20028;-29
2022/04/15 04:13:49;;;;;;;4.03;2.28;;;;;;;18.55;39.56;96961.22;5116881;28;20030;-28
2022/04/15 04:16:14;;;;;;;3.35;2.17;;;;;;;18.46;39.64;96950.28;5116939;28;20093;-30
2022/04/15 04:18:41;;;;;;;6.88;2.78;;;;;;;18.47;39.73;96965.56;5098429;28;20417;-29
2022/04/15 04:21:08;;;;;;;4.85;2.15;;;;;;;18.56;39.58;96965.50;5116863;28;20019;-29
2022/04/15 04:23:34;;;;;;;4.40;1.90;;;;;;;18.60;39.56;96965.34;5116885;28;20028;-28
2022/04/15 04:26:00;;;;;;;4.20;2.33;;;;;;;18.51;39.76;96968.91;5116828;28;20031;-30
2022/04/15 04:28:26;;;;;;;5.57;2.25;;;;;;;18.57;39.52;96971.75;5116685;28;20063;-29
2022/04/15 04:30:52;;;;;;;3.33;1.98;;;;;;;18.50;39.83;96970.13;5115922;28;20047;-28
2022/04/15 04:33:19;;;;;;;4.65;2.17;;;;;;;18.49;39.81;96971.34;5116694;28;20137;-29
2022/04/15 04:35:45;;;;;;;3.10;2.28;;;;;;;18.52;39.64;96970.41;5116590;28;20422;-28
2022/04/15 04:38:11;;;;;;;4.75;2.63;;;;;;;18.50;39.66;96980.34;5116626;28;20103;-28
2022/04/15 04:40:37;;;;;;;3.90;2.58;;;;;;;18.52;39.39;96978.66;5098067;28;20442;-29
2022/04/15 04:43:04;;;;;;;3.15;2.10;;;;;;;18.50;39.54;96977.59;5116509;28;20028;-29
2022/04/15 04:45:30;;;;;;;6.50;2.60;;;;;;;18.53;39.66;96980.19;5116447;28;20020;-29
2022/04/15 04:47:59;;;;;;;4.95;2.30;;;;;;;18.49;39.59;96987.06;5116198;28;20020;-28
2022/04/15 04:50:24;;;;;;;3.97;2.40;;;;;;;18.50;39.68;96985.84;5116236;28;20027;-28
2022/04/15 04:52:50;;;;;;;3.35;2.17;;;;;;;18.46;39.54;96987.97;5098032;28;20028;-29
2022/04/15 04:55:15;;;;;;;4.45;2.30;;;;;;;18.56;39.59;96981.22;5116098;28;20412;-28
2022/04/15 04:57:44;;;;;;;3.55;2.40;;;;;;;18.51;39.76;96987.34;5116291;28;20027;-28
2022/04/15 05:00:11;;;;;;;5.55;2.40;;;;;;;18.50;39.51;96992.09;5097720;28;20031;-28
2022/04/15 05:02:37;;;;;;;4.05;2.55;;;;;;;18.43;39.79;96991.66;5115728;28;20039;-28
2022/04/15 05:05:04;;;;;;;4.20;2.30;;;;;;;18.41;39.72;96983.13;5115882;28;20035;-28
2022/04/15 05:07:30;;;;;;;3.72;2.13;;;;;;;18.40;39.75;96981.63;5115814;28;20031;-31
2022/04/15 05:09:56;;;;;;;3.30;2.17;;;;;;;18.40;39.43;96984.38;5097544;28;20027;-28
2022/04/15 05:12:21;;;;;;;3.33;2.08;;;;;;;18.33;39.73;96982.69;5115927;28;20020;-28
2022/04/15 05:14:49;;;;;;;2.55;1.92;;;;;;;18.44;39.57;96976.69;5097543;28;20079;-28
2022/04/15 05:17:14;;;;;;;3.35;1.80;;;;;;;18.39;39.31;96986.34;5115658;28;20471;-28
2022/04/15 05:19:40;;;;;;;3.65;1.80;;;;;;;18.41;39.50;96983.91;5115662;28;20034;-29
2022/04/15 05:22:06;;;;;;;3.28;2.10;;;;;;;18.44;39.42;96987.69;5115555;28;20102;-28
2022/04/15 05:24:31;;;;;;;2.72;1.88;;;;;;;18.41;39.39;96985.88;5115709;28;20019;-28
2022/04/15 05:26:58;;;;;;;6.18;2.88;;;;;;;18.45;39.57;96989.97;5115846;28;20099;-29
2022/04/15 05:29:24;;;;;;;3.10;2.08;;;;;;;18.41;39.46;96997.63;5115307;28;20424;-28
2022/04/15 05:31:49;;;;;;;7.30;1.98;;;;;;;18.44;39.44;96991.19;5115362;28;20019;-28
2022/04/15 05:34:15;;;;;;;4.25;2.00;;;;;;;18.37;39.60;96999.78;5115450;28;20029;-28
2022/04/15 05:36:41;;;;;;;4.07;1.70;;;;;;;18.40;39.41;96998.09;5115201;28;20028;-28
2022/04/15 05:39:08;;;;;;;3.35;2.08;;;;;;;18.43;39.41;97002.63;5115409;28;20438;-28
2022/04/15 05:41:33;;;;;;;3.13;1.67;;;;;;;18.47;39.37;97003.25;5114200;28;20039;-28
2022/04/15 05:43:59;;;;;;;3.05;2.10;;;;;;;18.49;39.44;97006.28;5115189;28;20016;-28
2022/04/15 05:46:29;;;;;;;3.05;2.20;;;;;;;18.43;39.33;97008.88;5096803;28;20057;-28
2022/04/15 05:48:54;;;;;;;3.45;2.13;;;;;;;18.42;39.38;97007.38;5115135;28;20024;-28
2022/04/15 05:51:20;;;;;;;3.90;2.30;;;;;;;18.44;39.56;97004.91;5115205;28;20061;-27
2022/04/15 05:53:46;;;;;;;4.68;2.30;;;;;;;18.43;39.45;97003.41;5094870;28;20028;-29
2022/04/15 05:56:11;;;;;;;4.03;2.30;;;;;;;18.50;39.26;97007.81;5092661;28;20036;-29
2022/04/15 05:58:37;;;;;;;5.95;2.40;;;;;;;18.40;39.62;97017.31;5092495;28;20099;-31
2022/04/15 06:01:05;;;;;;;3.10;2.25;;;;;;;18.44;39.43;97006.91;5092038;28;20561;-28
2022/04/15 06:03:34;;;;;;;3.20;1.90;;;;;;;18.41;39.42;97007.84;5092297;28;20456;-28
2022/04/15 06:06:03;;;;;;;3.42;2.40;;;;;;;18.46;39.44;97012.69;5086990;28;20012;-29
2022/04/15 06:08:28;;;;;;;5.68;2.60;;;;;;;18.45;39.40;97017.44;5074041;28;20024;-30
2022/04/15 06:10:54;;;;;;;4.90;2.95;;;;;;;18.47;39.35;97019.72;5092443;28;20533;-30
2022/04/15 06:13:22;;;;;;;4.13;2.83;;;;;;;18.45;39.52;97020.19;5074126;28;20020;-28
2022/04/15 06:15:57;;;;;;;4.95;2.40;;;;;;;18.37;39.80;97026.47;5091261;28;20031;-29
2022/04/15 06:18:24;;;;;;;5.97;2.25;;;;;;;18.35;40.00;97026.16;5091843;28;20058;-28
2022/04/15 06:20:51;;;;;;;5.28;3.15;;;;;;;18.37;40.30;97016.25;5092300;28;20031;-30
2022/04/15 06:23:17;;;;;;;4.10;2.33;;;;;;;18.36;40.44;97020.22;5091542;28;20020;-28
2022/04/15 06:25:44;;;;;;;3.92;2.33;;;;;;;18.37;40.28;97019.00;5091617;28;20093;-31
2022/04/15 06:28:10;;;;;;;4.45;2.33;;;;;;;18.33;40.66;97015.66;5091664;28;20026;-31
2022/04/15 06:30:36;;;;;;;3.25;2.10;;;;;;;18.33;40.55;97025.88;5091801;28;20049;-28
2022/04/15 06:33:05;;;;;;;4.13;2.15;;;;;;;18.40;40.03;97023.56;5091618;28;20422;-29
2022/04/15 06:35:37;;;;;;;3.80;2.47;;;;;;;18.41;40.37;97040.81;5092441;28;20103;-30
2022/04/15 06:38:02;;;;;;;3.90;2.45;;;;;;;18.37;40.44;97045.69;5091462;28;20392;-29
2022/04/15 06:40:28;;;;;;;5.13;2.40;;;;;;;18.42;40.16;97042.34;5092275;28;20024;-28
2022/04/15 06:42:53;;;;;;;4.00;2.10;;;;;;;18.38;40.17;97038.97;5112033;28;20677;-29
2022/04/15 06:45:19;;;;;;;3.78;2.13;;;;;;;18.36;40.39;97033.94;5112092;28;20035;-29
2022/04/15 06:47:44;;;;;;;3.72;2.20;;;;;;;18.30;40.27;97039.28;5111825;28;20039;-29
2022/04/15 06:50:10;;;;;;;3.63;2.10;;;;;;;18.23;40.62;97034.13;5112035;28;20031;-29
2022/04/15 06:52:37;;;;;;;4.10;2.08;;;;;;;18.28;40.11;97033.53;5110988;28;20027;-29
2022/04/15 06:55:04;;;;;;;4.72;2.40;;;;;;;18.33;40.20;97039.59;5111777;28;20054;-29
2022/04/15 06:57:31;;;;;;;3.42;2.25;;;;;;;18.33;40.16;97037.63;5111822;28;20031;-29
2022/04/15 06:59:57;;;;;;;3.15;2.00;;;;;;;18.37;39.95;97038.22;5111291;28;20080;-30
2022/04/15 07:02:22;;;;;;;4.15;2.15;;;;;;;18.32;40.09;97041.59;5111109;28;20686;-29
2022/04/15 07:04:49;;;;;;;2.50;1.92;;;;;;;18.16;40.53;97048.22;5111274;28;20062;-29
2022/04/15 07:07:15;;;;;;;3.35;1.80;;;;;;;18.27;40.08;97042.97;5109949;28;20027;-29
2022/04/15 07:09:40;;;;;;;4.68;2.17;;;;;;;18.31;40.24;97045.53;5104126;28;20365;-29
2022/04/15 07:12:06;;;;;;;3.35;2.10;;;;;;;18.17;40.51;97040.72;5093488;28;20027;-29
2022/04/15 07:14:33;;;;;;;3.13;2.55;;;;;;;18.02;40.67;97037.88;5093481;28;20020;-29
2022/04/15 07:17:13;;;;;;;3.60;1.98;;;;;;;18.10;40.39;97036.31;5093294;28;20027;-29
2022/04/15 07:19:39;;;;;;;2.50;2.30;;;;;;;18.18;40.34;97040.25;5093418;28;20429;-30
2022/04/15 07:22:07;;;;;;;2.60;2.00;;;;;;;18.18;40.44;97037.50;5074987;28;20020;-29
2022/04/15 07:24:34;;;;;;;3.40;2.10;;;;;;;18.30;40.26;97035.78;5093247;28;20035;-29
2022/04/15 07:26:59;;;;;;;3.22;2.00;;;;;;;18.31;40.23;97034.56;5108604;28;20085;-29
2022/04/15 07:29:26;;;;;;;2.70;2.00;;;;;;;18.30;40.35;97031.06;5093318;28;20023;-29
2022/04/15 07:31:52;;;;;;;3.42;2.17;;;;;;;18.29;40.33;97034.28;5111413;28;20040;-29
2022/04/15 07:34:18;;;;;;;2.63;2.20;;;;;;;18.04;40.73;97029.94;5111542;28;20118;-30
2022/04/15 07:36:45;;;;;;;5.07;2.28;;;;;;;18.05;40.86;97031.44;5110663;28;20527;-31
2022/04/15 07:39:16;;;;;;;2.80;1.98;;;;;;;18.00;40.97;97032.06;5092884;28;20514;-29
2022/04/15 07:41:42;;;;;;;2.75;1.98;;;;;;;18.19;40.74;97044.50;5111084;28;20475;-29
2022/04/15 07:44:14;;;;;;;3.00;2.28;;;;;;;18.30;40.56;97038.53;5111472;28;20085;-29
2022/04/15 07:46:41;;;;;;;3.05;2.00;;;;;;;18.24;40.24;97043.13;5111292;28;20051;-29
2022/04/15 07:49:14;;;;;;;2.88;2.10;;;;;;;18.07;40.58;97037.22;5111054;28;20035;-29
2022/04/15 07:51:39;;;;;;;5.22;2.25;;;;;;;18.10;40.64;97041.81;5111194;28;20024;-30
2022/04/15 07:54:07;;;;;;;3.72;2.30;;;;;;;18.02;40.63;97043.34;5097240;28;20036;-29
2022/04/15 07:56:33;;;;;;;2.78;2.13;;;;;;;18.28;39.79;97046.50;5075034;28;20422;-29
2022/04/15 07:58:59;;;;;;;3.83;2.78;;;;;;;18.01;40.50;97046.56;5092810;28;20024;-31
2022/04/15 08:01:28;;;;;;;4.55;2.38;;;;;;;18.14;40.43;97053.38;5092945;28;20512;-30
2022/04/15 08:03:55;;;;;;;3.05;2.10;;;;;;;18.15;40.44;97043.16;5092958;28;20144;-29
2022/04/15 08:06:22;;;;;;;2.72;2.20;;;;;;;17.89;40.84;97042.75;5096766;28;20444;-30
2022/04/15 08:08:48;;;;;;;3.53;2.30;;;;;;;18.14;40.49;97045.16;5096747;28;20045;-30
2022/04/15 08:11:14;;;;;;;3.35;2.38;;;;;;;18.22;40.58;97049.09;5096749;28;20020;-29
2022/04/15 08:13:39;;;;;;;3.35;2.17;;;;;;;18.09;40.46;97048.50;5096536;28;20473;-29
2022/04/15 08:16:05;;;;;;;3.65;2.72;;;;;;;18.16;40.38;97052.94;5096574;28;20020;-30
2022/04/15 08:18:32;;;;;;;5.70;3.60;;;;;;;17.27;42.73;97048.53;5095461;28;20437;-29
2022/04/15 08:20:57;;;;;;;5.32;2.38;;;;;;;17.66;41.84;97059.84;5094970;28;20480;-28
2022/04/15 08:23:23;;;;;;;4.07;2.50;;;;;;;17.56;42.20;97056.31;5095216;28;20032;-28
2022/04/15 08:25:49;;;;;;;4.78;2.50;;;;;;;17.93;41.25;97065.31;5095158;28;20031;-28
2022/04/15 08:28:27;;;;;;;3.92;2.40;;;;;;;18.08;40.70;97057.97;5077504;28;20097;-27
2022/04/15 08:30:58;;;;;;;4.47;2.80;;;;;;;17.81;41.55;97063.50;5095945;28;20020;-28
2022/04/15 08:33:24;;;;;;;5.00;2.25;;;;;;;17.69;41.77;97056.94;5096215;28;20077;-28
2022/04/15 08:35:49;;;;;;;5.32;2.85;;;;;;;17.50;41.73;97058.91;5078005;28;20110;-29
2022/04/15 08:38:16;;;;;;;4.93;2.30;;;;;;;17.70;41.58;97052.22;5077961;28;20027;-28
2022/04/15 08:40:50;;;;;;;7.32;2.72;;;;;;;17.53;42.06;97060.75;5096095;28;20032;-28
2022/04/15 08:43:16;;;;;;;3.65;2.53;;;;;;;17.66;41.76;97059.84;5095945;28;20035;-30
2022/04/15 08:45:45;;;;;;;5.90;2.72;;;;;;;17.70;41.84;97065.94;5096152;28;20095;-29
2022/04/15 08:48:11;;;;;;;5.03;2.53;;;;;;;17.67;41.95;97053.91;5095877;28;20024;-28
2022/04/15 08:50:36;;;;;;;4.10;2.67;;;;;;;17.74;41.98;97064.56;5096042;28;20077;-28
2022/04/15 08:53:04;;;;;;;5.80;2.60;;;;;;;18.00;41.39;97062.25;5095951;28;20020;-28
2022/04/15 08:55:32;;;;;;;4.10;2.65;;;;;;;17.81;42.67;97061.50;5095812;28;20032;-28
2022/04/15 08:57:58;;;;;;;4.65;1.85;;;;;;;18.02;41.28;97064.53;5095879;28;20023;-27
2022/04/15 09:00:24;;;;;;;4.25;2.20;;;;;;;18.15;41.01;97065.91;5095609;28;20028;-27
2022/04/15 09:02:52;;;;;;;3.83;2.55;;;;;;;18.02;41.22;97062.56;5095371;28;20500;-28
2022/04/15 09:05:22;;;;;;;4.38;2.08;;;;;;;18.19;40.91;97065.72;5095627;28;20060;-30
2022/04/15 09:07:48;;;;;;;2.95;2.25;;;;;;;18.22;40.89;97064.81;5095461;28;20038;-28
2022/04/15 09:10:16;;;;;;;5.65;2.40;;;;;;;18.19;41.09;97058.25;5095803;28;20024;-28
2022/04/15 09:12:45;;;;;;;3.70;2.30;;;;;;;18.26;40.43;97060.69;5095561;28;20383;-28
2022/04/15 09:15:12;;;;;;;4.32;2.05;;;;;;;18.19;41.37;97052.00;5095068;28;20020;-28
2022/04/15 09:17:40;;;;;;;2.58;1.90;;;;;;;18.32;40.91;97052.56;5095567;28;20026;-29
2022/04/15 09:20:07;;;;;;;7.07;2.20;;;;;;;18.28;40.71;97047.25;5095242;28;20523;-28
2022/04/15 09:22:33;;;;;;;2.88;2.20;;;;;;;18.35;40.65;97050.88;5095270;28;20027;-27
2022/04/15 09:24:59;;;;;;;3.72;2.08;;;;;;;18.41;40.58;97038.81;5095247;28;20028;-28
2022/04/15 09:27:26;;;;;;;4.40;2.47;;;;;;;18.40;40.89;97042.03;5095024;28;20489;-28
2022/04/15 09:29:54;;;;;;;3.10;2.30;;;;;;;18.37;40.96;97038.22;5095113;28;20484;-29
2022/04/15 09:32:22;;;;;;;2.00;1.73;;;;;;;18.41;40.66;97033.34;5095009;28;20062;-27
2022/04/15 09:34:53;;;;;;;3.03;2.20;;;;;;;18.43;40.65;97030.84;5095262;28;20020;-28
2022/04/15 09:37:20;;;;;;;4.38;2.30;;;;;;;18.42;40.68;97028.59;5094873;28;20059;-27
2022/04/15 09:40:27;;;;;;;2.22;2.00;;;;;;;18.41;40.61;97027.06;5095044;28;20024;-29
2022/04/15 09:42:58;;;;;;;5.60;2.50;;;;;;;18.45;40.80;97033.16;5094912;28;20111;-28
2022/04/15 09:45:34;;;;;;;2.72;2.15;;;;;;;18.41;40.78;97025.09;5094918;28;20024;-28
2022/04/15 09:47:59;;;;;;;3.67;2.50;;;;;;;18.46;40.80;97018.19;5094976;28;20031;-28
2022/04/15 09:50:25;;;;;;;2.40;2.00;;;;;;;18.47;40.59;97019.72;5094525;28;20028;-28
2022/04/15 09:52:54;;;;;;;5.72;2.40;;;;;;;18.52;40.77;97030.84;5107093;28;20046;-28
2022/04/15 09:55:21;;;;;;;3.33;2.50;;;;;;;18.57;40.76;97023.94;5094178;28;20027;-29
2022/04/15 09:57:50;;;;;;;4.30;2.40;;;;;;;18.55;40.89;97026.38;5096657;28;20384;-29
2022/04/15 10:00:19;;;;;;;3.45;2.30;;;;;;;18.58;40.79;97022.75;5114857;28;20032;-29
2022/04/15 10:02:47;;;;;;;5.68;2.40;;;;;;;18.58;40.72;97020.00;5114414;28;20088;-29
2022/04/15 10:05:15;;;;;;;3.25;2.20;;;;;;;18.57;40.88;97029.44;5114802;28;20020;-30
2022/04/15 10:07:42;;;;;;;3.67;2.33;;;;;;;18.57;40.81;97027.44;5113557;28;20423;-29
2022/04/15 10:10:09;;;;;;;3.42;2.30;;;;;;;18.62;41.07;97015.88;5091994;28;20039;-28
2022/04/15 10:12:39;;;;;;;2.85;2.33;;;;;;;18.63;40.82;97022.13;5092297;28;20016;-28
2022/04/15 10:15:06;;;;;;;3.85;2.40;;;;;;;18.64;41.06;97015.41;5091922;28;20539;-30
2022/04/15 10:17:34;;;;;;;4.22;2.65;;;;;;;18.61;40.92;97014.34;5091658;28;20097;-28
2022/04/15 10:20:01;;;;;;;2.78;2.40;;;;;;;18.63;41.21;97014.66;5092070;28;20027;-29
2022/04/15 10:22:27;;;;;;;4.97;2.30;;;;;;;18.69;41.07;97017.50;5073995;28;20139;-28
2022/04/15 10:24:53;;;;;;;3.13;2.22;;;;;;;18.69;41.01;97012.00;5073820;28;20028;-29
2022/04/15 10:27:26;;;;;;;3.03;2.30;;;;;;;18.69;41.36;97009.25;5091466;28;20047;-28
2022/04/15 10:30:04;;;;;;;3.97;2.40;;;;;;;18.67;41.68;97008.22;5092193;28;20533;-28
2022/04/15 10:32:47;;;;;;;5.93;2.15;;;;;;;18.62;41.56;97006.88;5091550;28;20020;-28
2022/04/15 10:35:18;;;;;;;;;;;;;;;18.62;41.72;96995.88;5090377;28;20457;-28
2022/04/15 10:37:53;;;;;;;5.35;2.30;;;;;;;18.57;42.07;96993.72;5091865;28;19911;-29
2022/04/15 10:40:24;;;;;;;4.00;2.10;;;;;;;18.64;42.02;96996.19;5091628;28;20047;-28
2022/04/15 10:42:50;;;;;;;3.42;2.13;;;;;;;18.72;42.12;96989.09;5091881;28;20503;-28
2022/04/15 10:45:29;;;;;;;3.05;2.30;;;;;;;18.66;42.34;96982.75;5091488;28;20027;-28
2022/04/15 10:47:59;;;;;;;2.85;1.88;;;;;;;18.67;42.33;96979.50;5091942;28;20051;-28
2022/04/15 10:50:29;;;;;;;4.32;2.30;;;;;;;18.72;42.23;96986.34;5091155;28;20032;-29
2022/04/15 10:53:30;;;;;;;4.45;2.05;;;;;;;18.73;42.17;96976.13;5091542;28;20028;-28
2022/04/15 10:56:07;;;;;;;2.70;2.20;;;;;;;18.70;42.42;96972.31;5091239;28;20024;-30
2022/04/15 11:01:13;;;;;;;6.65;2.45;;;;;;;18.79;42.43;96968.78;5091218;28;20425;-28
2022/04/15 11:01:34;;;;;;;4.18;2.53;;;;;;;18.74;42.81;96966.66;5091058;28;20067;-28
2022/04/15 11:04:08;;;;;;;4.47;2.20;;;;;;;18.86;42.66;96962.91;5100211;28;20471;-28
2022/04/15 11:06:33;;;;;;;7.28;2.20;;;;;;;18.84;42.56;96962.63;5101408;28;20035;-29
2022/04/15 11:09:24;;;;;;;4.43;2.20;;;;;;;18.86;42.65;96952.69;5096041;28;20541;-28
2022/04/15 11:11:51;;;;;;;3.10;2.20;;;;;;;18.86;42.91;96958.19;5101534;28;20027;-29
2022/04/15 11:14:17;;;;;;;5.82;2.85;;;;;;;18.84;42.99;96946.88;5100614;28;20102;-28
2022/04/15 11:16:46;;;;;;;4.13;2.40;;;;;;;18.80;43.18;96945.53;5082323;28;20032;-28
2022/04/15 11:19:15;;;;;;;4.45;1.95;;;;;;;18.88;42.97;96943.97;5093649;28;20055;-29
2022/04/15 11:21:41;;;;;;;3.95;1.92;;;;;;;18.91;42.67;96943.81;5090205;28;20030;-28
2022/04/15 11:24:13;;;;;;;3.55;2.03;;;;;;;18.91;42.76;96932.81;5091044;28;20016;-28
2022/04/15 11:26:42;;;;;;;4.57;1.77;;;;;;;18.89;42.93;96929.00;5091051;28;20044;-28
2022/04/15 11:29:09;;;;;;;3.95;1.95;;;;;;;18.90;42.98;96927.78;5091207;28;20109;-28
2022/04/15 11:31:35;;;;;;;4.32;2.17;;;;;;;18.81;43.03;96925.84;5090980;28;20107;-28
2022/04/15 11:34:05;;;;;;;5.55;2.78;;;;;;;18.79;43.38;96919.31;5089368;28;20032;-28
2022/04/15 11:36:36;;;;;;;5.15;3.38;;;;;;;18.86;43.50;96916.97;5094141;28;20019;-29